Time;durP1;ratioP1;P1;durP2;ratioP2;P2;SDS_P1;SDS_P2;PMS_P1;PMS_P2;Temp;Humidity;BMP_temperature;BMP_pressure;BME280_temperature;BME280_humidity;BME280_pressure;Samples;Min_cycle;Max_cycle;Signal;HPM_P1;HPM_P2
2022/09/20 00:01:04;;;;;;;;;;;;;;;15.40;84.85;99666.91;5006920;28;19971;-81
2022/09/20 00:03:30;;;;;;;;;;;;;;;15.42;82.96;99670.22;5008181;28;19917;-83
2022/09/20 00:05:59;;;;;;;;;;;;;;;15.41;82.96;99671.22;5008013;28;19956;-83
2022/09/20 00:08:24;;;;;;;;;;;;;;;15.31;83.09;99671.44;5004625;28;19917;-84
2022/09/20 00:10:49;;;;;;;;;;;;;;;15.32;83.25;99673.06;5008353;28;20007;-86
2022/09/20 00:13:15;;;;;;;;;;;;;;;15.35;83.84;99669.25;5011269;28;19918;-86
2022/09/20 00:15:41;;;;;;;;;;;;;;;15.35;83.37;99664.75;5010185;28;20255;-86
2022/09/20 00:18:07;;;;;;;;;;;;;;;15.37;82.73;99677.91;5016902;28;19917;-85
2022/09/20 00:20:32;;;;;;;;;;;;;;;15.37;81.64;99669.91;5020917;28;19975;-85
2022/09/20 00:22:57;;;;;;;;;;;;;;;15.33;81.05;99669.41;5013433;28;20222;-83
2022/09/20 00:25:23;;;;;;;;;;;;;;;15.30;80.01;99666.28;5007684;28;19924;-84
2022/09/20 00:27:48;;;;;;;;;;;;;;;15.29;79.58;99664.59;5011108;28;19925;-84
2022/09/20 00:30:14;;;;;;;;;;;;;;;15.25;78.36;99671.28;5007013;28;19918;-84
2022/09/20 00:32:40;;;;;;;;;;;;;;;15.18;77.95;99672.94;4985056;28;19921;-83
2022/09/20 00:35:12;;;;;;;;;;;;;;;15.19;77.30;99670.13;4987888;28;19917;-84
2022/09/20 00:37:38;;;;;;;;;;;;;;;15.21;74.09;99670.75;4993280;28;20009;-81
2022/09/20 00:40:04;;;;;;;;;;;;;;;15.14;73.45;99667.94;5009932;28;19924;-83
2022/09/20 00:42:30;;;;;;;;;;;;;;;15.14;72.82;99662.63;5007578;28;19996;-82
2022/09/20 00:44:59;;;;;;;;;;;;;;;15.12;71.03;99664.66;5006001;28;20398;-84
2022/09/20 00:47:31;;;;;;;;;;;;;;;15.07;70.50;99656.38;4982114;28;19925;-85
2022/09/20 00:50:04;;;;;;;;;;;;;;;14.95;70.55;99659.53;5006391;28;20009;-87
2022/09/20 00:52:30;;;;;;;2.25;1.63;;;;;;;14.88;71.36;99659.38;5006992;28;20026;-82
2022/09/20 00:54:59;;;;;;;6.38;1.98;;;;;;;14.79;71.07;99660.34;4987496;28;20320;-85
2022/09/20 00:57:25;;;;;;;;;;;;;;;14.65;72.32;99666.34;5009217;28;20105;-80
2022/09/20 00:59:52;;;;;;;;;;;;;;;14.53;73.52;99657.06;5003146;28;20333;-85
2022/09/20 01:02:23;;;;;;;;;;;;;;;14.51;74.59;99661.69;5002177;28;19917;-86
2022/09/20 01:04:49;;;;;;;;;;;;;;;14.43;71.73;99656.41;5002684;28;20280;-85
2022/09/20 01:07:16;;;;;;;;;;;;;;;14.37;71.89;99657.88;5002251;28;19918;-85
2022/09/20 01:09:47;;;;;;;;;;;;;;;14.30;70.26;99652.38;5004954;28;19920;-84
2022/09/20 01:12:17;;;;;;;2.13;1.70;;;;;;;14.24;69.76;99645.06;5007157;28;19917;-84
2022/09/20 01:14:46;;;;;;;2.42;1.60;;;;;;;14.19;69.34;99655.34;5003006;28;20030;-80
2022/09/20 01:17:12;;;;;;;2.47;1.52;;;;;;;14.23;69.44;99661.97;5004909;28;20034;-83
2022/09/20 01:20:15;;;;;;;1.60;1.50;;;;;;;14.22;69.30;99665.63;5003608;28;20066;-84
2022/09/20 01:22:47;;;;;;;;;;;;;;;14.07;72.56;99663.75;5003395;28;20049;-83
2022/09/20 01:25:16;;;;;;;;;;;;;;;13.99;74.41;99675.19;5014273;28;19917;-82
2022/09/20 01:27:49;;;;;;;;;;;;;;;13.87;77.71;99671.16;5010630;28;19925;-83
2022/09/20 01:30:19;;;;;;;;;;;;;;;13.68;78.84;99674.06;5010014;28;19941;-82
2022/09/20 01:32:44;;;;;;;;;;;;;;;13.61;78.26;99667.75;5009041;28;19980;-83
2022/09/20 01:35:11;;;;;;;;;;;;;;;13.61;77.44;99665.13;5006189;28;19925;-84
2022/09/20 01:37:56;;;;;;;;;;;;;;;13.66;75.53;99663.63;4983028;28;19929;-84
2022/09/20 01:40:22;;;;;;;;;;;;;;;13.74;74.94;99670.78;5000132;28;20413;-83
2022/09/20 01:42:55;;;;;;;;;;;;;;;13.82;75.38;99669.00;5002486;28;19949;-84
2022/09/20 01:45:27;;;;;;;;;;;;;;;13.82;76.49;99671.66;5012239;28;19921;-84
2022/09/20 01:47:59;;;;;;;;;;;;;;;13.79;76.24;99668.47;4998752;28;19976;-82
2022/09/20 01:50:27;;;;;;;;;;;;;;;13.78;76.20;99661.53;5011463;28;19921;-84
2022/09/20 01:53:15;;;;;;;;;;;;;;;13.88;75.54;99664.88;5020977;28;19932;-84
2022/09/20 01:55:50;;;;;;;;;;;;;;;13.91;75.78;99667.19;5030514;28;19949;-84
2022/09/20 01:58:25;;;;;;;;;;;;;;;13.91;76.56;99672.50;5031261;28;19929;-84
2022/09/20 02:01:09;;;;;;;;;;;;;;;13.88;77.17;99672.81;5029918;28;19936;-83
2022/09/20 02:03:53;;;;;;;;;;;;;;;13.70;78.63;99675.59;5030523;28;19925;-82
2022/09/20 02:06:24;;;;;;;;;;;;;;;13.58;80.40;99676.03;5027016;28;19937;-83
2022/09/20 02:08:49;;;;;;;;;;;;;;;13.51;81.62;99675.81;5030126;28;19961;-82
2022/09/20 02:11:16;;;;;;;;;;;;;;;13.46;83.03;99678.94;5017284;28;19918;-85
2022/09/20 02:13:50;;;;;;;;;;;;;;;13.41;83.43;99677.75;5007761;28;19918;-85
2022/09/20 02:16:21;;;;;;;;;;;;;;;13.43;84.17;99679.25;5010948;28;19917;-89
2022/09/20 02:19:00;;;;;;;;;;;;;;;13.43;83.82;99684.56;5018070;28;19925;-90
2022/09/20 02:21:32;;;;;;;;;;;;;;;13.41;84.27;99678.59;5021293;28;20341;-88
2022/09/20 02:24:09;;;;;;;;;;;;;;;13.29;84.97;99682.50;5009011;28;19940;-88
2022/09/20 02:26:40;;;;;;;;;;;;;;;13.12;86.08;99675.44;5018070;28;19964;-87
2022/09/20 02:29:20;;;;;;;;;;;;;;;13.05;86.12;99677.03;5011049;28;19917;-88
2022/09/20 02:32:01;;;;;;;;;;;;;;;13.00;86.24;99681.94;5016391;28;19925;-88
2022/09/20 02:34:35;;;;;;;;;;;;;;;12.94;86.97;99677.28;5019709;28;19928;-85
2022/09/20 02:37:07;;;;;;;;;;;;;;;12.85;88.38;99673.72;5019756;28;19953;-81
2022/09/20 02:39:42;;;;;;;;;;;;;;;12.84;88.30;99676.53;5013841;28;20348;-82
2022/09/20 02:42:10;;;;;;;;;;;;;;;12.83;88.69;99681.00;5018398;28;19917;-82
2022/09/20 02:44:53;;;;;;;;;;;;;;;12.90;88.73;99681.22;5020998;28;19918;-83
2022/09/20 02:47:26;;;;;;;;;;;;;;;12.89;88.79;99680.41;5013517;28;20012;-82
2022/09/20 02:50:04;;;;;;;;;;;;;;;12.90;88.29;99686.53;5013699;28;19917;-81
2022/09/20 02:52:48;;;;;;;;;;;;;;;12.89;88.65;99679.56;5016278;28;19928;-81
2022/09/20 02:55:27;;;;;;;;;;;;;;;12.89;86.31;99682.22;5013869;28;20419;-84
2022/09/20 02:58:06;;;;;;;;;;;;;;;12.93;85.60;99683.56;5008138;28;19917;-83
2022/09/20 03:00:36;;;;;;;;;;;;;;;12.87;82.72;99686.81;5004242;28;19917;-84
2022/09/20 03:03:28;;;;;;;;;;;;;;;12.70;80.59;99685.88;5010036;28;20239;-85
2022/09/20 03:06:07;;;;;;;;;;;;;;;12.53;81.24;99684.06;5006159;28;20045;-85
2022/09/20 03:08:39;;;;;;;;;;;;;;;12.55;80.81;99688.19;5007544;28;19921;-85
2022/09/20 03:11:23;;;;;;;;;;;;;;;12.53;80.10;99682.25;5006389;28;19960;-88
2022/09/20 03:13:54;;;;;;;;;;;;;;;12.51;80.27;99684.22;5008368;28;19924;-86
2022/09/20 03:16:29;;;;;;;;;;;;;;;12.49;80.03;99683.50;5009411;28;19927;-86
2022/09/20 03:19:10;;;;;;;;;;;;;;;12.48;80.04;99686.34;5003469;28;19917;-84
2022/09/20 03:21:51;;;;;;;;;;;;;;;12.43;79.46;99684.13;5007953;28;19918;-88
2022/09/20 03:24:35;;;;;;;;;;;;;;;12.37;78.97;99679.44;5017870;28;19921;-88
2022/09/20 03:27:06;;;;;;;;;;;;;;;12.41;79.13;99679.97;5014963;28;19917;-88
2022/09/20 03:29:45;;;;;;;;;;;;;;;12.43;79.06;99686.78;5023269;28;20536;-87
2022/09/20 03:32:24;;;;;;;;;;;;;;;12.43;79.15;99689.41;5009226;28;19922;-88
2022/09/20 03:34:52;;;;;;;;;;;;;;;12.43;79.64;99686.78;5010489;28;19979;-87
2022/09/20 03:37:33;;;;;;;;;;;;;;;12.45;79.50;99691.91;5002701;28;19917;-82
2022/09/20 03:39:59;;;;;;;;;;;;;;;12.40;79.66;99686.25;5005452;28;20297;-83
2022/09/20 03:42:25;;;;;;;;;;;;;;;12.39;79.43;99682.78;5008342;28;20028;-82
2022/09/20 03:45:10;;;;;;;;;;;;;;;12.43;80.08;99689.41;5020736;28;19917;-82
2022/09/20 03:47:50;;;;;;;;;;;;;;;12.49;79.20;99690.63;4986087;28;20263;-82
2022/09/20 03:50:19;;;;;;;;;;;;;;;12.43;79.56;99689.41;4987733;28;20012;-82
2022/09/20 03:52:56;;;;;;;;;;;;;;;12.33;78.99;99688.66;5008295;28;19917;-85
2022/09/20 03:55:22;;;;;;;;;;;;;;;12.25;79.79;99685.97;5004209;28;19913;-87
2022/09/20 03:57:56;;;;;;;;;;;;;;;12.15;79.92;99686.00;5011546;28;20004;-86
2022/09/20 04:00:34;;;;;;;;;;;;;;;12.00;80.99;99698.09;5003071;28;19918;-87
2022/09/20 04:03:12;;;;;;;;;;;;;;;11.89;81.47;99695.66;5001674;28;19924;-83
2022/09/20 04:05:47;;;;;;;;;;;;;;;11.81;82.28;99691.09;5004354;28;19914;-85
2022/09/20 04:08:21;;;;;;;;;;;;;;;11.84;82.33;99696.06;5007209;28;19940;-85
2022/09/20 04:10:59;;;;;;;;;;;;;;;11.92;81.27;99697.97;4990427;28;20038;-83
2022/09/20 04:13:31;;;;;;;;;;;;;;;11.97;80.91;99694.88;5002341;28;20005;-85
2022/09/20 04:16:09;;;;;;;;;;;;;;;12.04;80.68;99698.59;5002188;28;19920;-84
2022/09/20 04:18:35;;;;;;;;;;;;;;;12.10;80.15;99698.84;5006510;28;19921;-83
2022/09/20 04:21:22;;;;;;;;;;;;;;;12.10;80.15;99690.09;5002631;28;19928;-83
2022/09/20 04:23:58;;;;;;;;;;;;;;;12.11;80.35;99699.69;4997459;28;19917;-84
2022/09/20 04:26:25;;;;;;;;;;;;;;;12.13;79.52;99700.38;5016956;28;19917;-84
2022/09/20 04:28:54;;;;;;;;;;;;;;;12.11;79.71;99699.69;5003633;28;20000;-83
2022/09/20 04:31:35;;;;;;;;;;;;;;;12.09;79.81;99701.63;4986046;28;19917;-85
2022/09/20 04:34:03;;;;;;;;;;;;;;;12.07;79.36;99704.44;4999984;28;20007;-84
2022/09/20 04:36:36;;;;;;;;;;;;;;;11.99;78.53;99700.88;4983673;28;19925;-84
2022/09/20 04:39:14;;;;;;;;;;;;;;;11.91;79.30;99709.53;4989384;28;19921;-84
2022/09/20 04:42:00;;;;;;;;;;;;;;;11.90;79.64;99708.69;5004338;28;20385;-85
2022/09/20 04:44:44;;;;;;;;;;;;;;;11.85;83.00;99710.97;5000349;28;19995;-83
2022/09/20 04:47:19;;;;;;;;;;;;;;;11.76;83.41;99714.50;5005611;28;19967;-84
2022/09/20 04:49:44;;;;;;;;;;;;;;;11.75;83.59;99712.81;5001400;28;19921;-83
2022/09/20 04:52:28;;;;;;;;;;;;;;;11.77;84.05;99718.81;5006370;28;20332;-84
2022/09/20 04:55:02;;;;;;;;;;;;;;;11.75;85.30;99719.91;5005487;28;19917;-82
2022/09/20 04:57:28;;;;;;;;;;;;;;;11.68;86.25;99729.38;5006925;28;19923;-84
2022/09/20 05:00:11;;;;;;;;;;;;;;;11.64;87.26;99731.47;5004055;28;19947;-82
2022/09/20 05:02:51;;;;;;;;;;;;;;;11.64;87.58;99739.41;5006277;28;19922;-85
2022/09/20 05:05:35;;;;;;;;;;;;;;;11.65;88.14;99741.09;5005072;28;19932;-82
2022/09/20 05:08:09;;;;;;;;;;;;;;;11.70;87.78;99744.13;5009712;28;19944;-85
2022/09/20 05:10:57;;;;;;;;;;;;;;;11.72;87.93;99755.38;4997597;28;19945;-86
2022/09/20 05:13:28;;;;;;;;;;;;;;;11.75;88.19;99757.75;5000244;28;19956;-85
2022/09/20 05:15:59;;;;;;;;;;;;;;;11.74;88.57;99758.75;5005611;28;19993;-82
2022/09/20 05:18:32;;;;;;;;;;;;;;;11.72;89.05;99762.50;5002826;28;19925;-81
2022/09/20 05:21:00;;;;;;;;;;;;;;;11.69;89.40;99762.75;5001681;28;19918;-90
2022/09/20 05:23:28;;;;;;;;;;;;;;;11.69;89.28;99763.59;5002994;28;19979;-80
2022/09/20 05:26:06;;;;;;;;;;;;;;;11.72;89.98;99776.50;5000055;28;19953;-80
2022/09/20 05:28:52;;;;;;;;;;;;;;;11.73;90.01;99778.22;4987029;28;19921;-80
2022/09/20 05:31:27;;;;;;;;;;;;;;;11.68;89.87;99777.78;4972385;28;19926;-86
2022/09/20 05:33:55;;;;;;;;;;;;;;;11.67;90.48;99789.34;4317292;28;10000656;-86
2022/09/20 05:36:26;;;;;;;;;;;;;;;11.68;90.42;99780.44;5004566;28;20021;-83
2022/09/20 05:39:10;;;;;;;;;;;;;;;11.61;90.61;99784.63;4996014;28;19932;-81
2022/09/20 05:41:41;;;;;;;;;;;;;;;11.47;91.32;99785.09;5001699;28;19928;-88
2022/09/20 05:44:22;;;;;;;;;;;;;;;11.44;91.61;99790.66;4998740;28;19946;-81
2022/09/20 05:46:53;;;;;;;;;;;;;;;11.45;92.16;99793.16;4998717;28;19948;-80
2022/09/20 05:49:24;;;;;;;;;;;;;;;11.51;91.75;99794.41;4075760;28;10000688;-79
2022/09/20 05:52:10;;;;;;;;;;;;;;;11.56;90.96;99800.09;4998707;28;19924;-79
2022/09/20 05:54:54;;;;;;;;;;;;;;;11.64;89.90;99792.28;4992629;28;19921;-77
2022/09/20 05:57:34;;;;;;;;;;;;;;;11.71;89.46;99801.31;5003455;28;19976;-77
2022/09/20 06:00:28;;;;;;;;;;;;;;;11.82;88.12;99800.31;4997657;28;19940;-77
2022/09/20 06:02:54;;;;;;;;;;;;;;;11.90;85.59;99803.91;4982818;28;20435;-77
2022/09/20 06:05:32;;;;;;;;;;;;;;;11.98;84.98;99811.13;5003098;28;19917;-77
2022/09/20 06:08:07;;;;;;;;;;;;;;;12.05;84.09;99811.38;5000268;28;20400;-78
2022/09/20 06:10:38;;;;;;;;;;;;;;;12.00;84.22;99818.91;5005219;28;19929;-76
2022/09/20 06:13:23;;;;;;;;;;;;;;;11.90;86.24;99819.75;5007027;28;19922;-76
2022/09/20 06:15:51;;;;;;;;;;;;;;;11.89;86.56;99818.13;5003960;28;19917;-76
2022/09/20 06:18:22;;;;;;;;;;;;;;;11.85;88.29;99821.19;5008364;28;19959;-74
2022/09/20 06:20:53;;;;;;;;;;;;;;;11.90;88.29;99825.06;5023148;28;19948;-76
2022/09/20 06:23:20;;;;;;;;;;;;;;;11.95;88.22;99821.16;5004721;28;20317;-77
2022/09/20 06:25:54;;;;;;;;;;;;;;;11.95;88.02;99822.00;5004259;28;19921;-76
2022/09/20 06:28:22;;;;;;;;;;;;;;;11.99;87.68;99838.41;5007756;28;20297;-77
2022/09/20 06:30:48;;;;;;;;;;;;;;;12.06;87.41;99828.91;5007791;28;19926;-77
2022/09/20 06:33:19;;;;;;;;;;;;;;;12.11;86.65;99826.66;5007367;28;20032;-77
2022/09/20 06:35:50;;;;;;;;;;;;;;;12.12;86.40;99823.88;5006327;28;20436;-75
2022/09/20 06:43:47;;;;;;;;;;;;;;;12.47;85.62;99825.78;5005393;28;20456;-75
2022/09/20 06:46:14;;;;;;;;;;;;;;;12.58;85.03;99825.56;5004902;28;19952;-76
2022/09/20 06:48:39;;;;;;;;;;;;;;;12.70;84.61;99823.53;5003422;28;19921;-76
2022/09/20 06:51:07;;;;;;;;;;;;;;;12.84;84.35;99840.75;5003578;28;20389;-75
2022/09/20 06:53:34;;;;;;;;;;;;;;;12.97;84.21;99835.88;5009847;28;19922;-76
2022/09/20 06:56:00;;;;;;;;;;;;;;;13.08;84.21;99833.00;5009598;28;19922;-76
2022/09/20 06:58:25;;;;;;;;;;;;;;;13.18;83.50;99846.22;5006218;28;20284;-76
2022/09/20 07:00:50;;;;;;;;;;;;;;;13.23;83.94;99839.47;5005069;28;19944;-77
2022/09/20 07:03:18;;;;;;;;;;;;;;;13.26;83.54;99847.09;4984984;28;20461;-76
2022/09/20 07:05:43;;;;;;;;;;;;;;;13.34;83.57;99847.19;5004482;28;20335;-75
2022/09/20 07:08:09;;;;;;;;;;;;;;;13.40;84.01;99851.88;5005144;28;19924;-76
2022/09/20 07:10:34;;;;;;;;;;;;;;;13.47;83.63;99849.44;5003271;28;20394;-74
2022/09/20 07:13:00;;;;;;;;;;;;;;;13.43;84.04;99853.41;5005457;28;19928;-76
2022/09/20 07:15:27;;;;;;;;;;;;;;;13.46;84.13;99853.91;5002992;28;20002;-75
2022/09/20 07:17:53;;;;;;;;;;;;;;;13.56;84.72;99863.56;5005355;28;19917;-76
2022/09/20 07:20:19;;;;;;;;;;;;;;;13.65;84.08;99857.38;5003561;28;19935;-75
2022/09/20 07:22:45;;;;;;;;;;;;;;;13.76;83.12;99862.41;5001958;28;20711;-75
2022/09/20 07:25:10;;;;;;;;;;;;;;;13.86;82.60;99860.47;5006433;28;19976;-77
2022/09/20 07:27:35;;;;;;;;;;;;;;;13.98;82.78;99864.53;5015858;28;20362;-80
2022/09/20 07:30:01;;;;;;;;;;;;;;;14.10;82.92;99863.28;5013397;28;19981;-80
2022/09/20 07:32:26;;;;;;;;;;;;;;;14.23;82.68;99861.03;4992449;28;19917;-81
2022/09/20 07:34:52;;;;;;;;;;;;;;;14.37;82.95;99869.41;4997884;28;19971;-76
2022/09/20 07:37:18;;;;;;;;;;;;;;;14.51;82.23;99876.78;5000857;28;20048;-75
2022/09/20 07:39:44;;;;;;;;;;;;;;;14.63;81.71;99870.19;4998179;28;19932;-76
2022/09/20 07:42:10;;;;;;;;;;;;;;;14.77;81.79;99872.22;4998998;28;19924;-76
2022/09/20 07:44:35;;;;;;;;;;;;;;;14.92;80.87;99875.06;5004664;28;19921;-77
2022/09/20 07:47:01;;;;;;;;;;;;;;;15.06;81.45;99871.78;5004846;28;20008;-77
2022/09/20 07:49:30;;;;;;;;;;;;;;;15.23;80.17;99877.97;4986761;28;19918;-78
2022/09/20 07:51:55;;;;;;;;;;;;;;;15.41;79.74;99875.97;5004004;28;20008;-76
2022/09/20 07:54:21;;;;;;;;;;;;;;;15.60;78.92;99882.84;5006414;28;20315;-76
2022/09/20 07:56:46;;;;;;;;;;;;;;;15.77;78.13;99887.13;5000275;28;19921;-77
2022/09/20 07:59:12;;;;;;;;;;;;;;;15.91;77.50;99879.28;5000777;28;19925;-78
2022/09/20 08:01:38;;;;;;;;;;;;;;;16.02;77.50;99882.63;5001945;28;20071;-77
2022/09/20 08:04:04;;;;;;;6.35;2.85;;;;;;;16.16;76.36;99884.56;5004551;28;20280;-77
2022/09/20 08:06:30;;;;;;;4.10;3.10;;;;;;;16.47;75.77;99880.16;5003555;28;20403;-77
2022/09/20 08:08:56;;;;;;;7.53;3.45;;;;;;;16.57;75.05;99883.41;5002568;28;20034;-78
2022/09/20 08:11:28;;;;;;;6.65;2.90;;;;;;;16.64;74.90;99887.09;5004396;28;20041;-79
2022/09/20 08:13:55;;;;;;;4.20;2.85;;;;;;;16.73;74.13;99890.53;5000956;28;20088;-78
2022/09/20 08:16:21;;;;;;;4.10;3.33;;;;;;;16.81;73.48;99893.16;5002490;28;20030;-80
2022/09/20 08:18:51;;;;;;;8.70;3.08;;;;;;;16.89;73.16;99894.97;5004541;28;20096;-78
2022/09/20 08:21:18;;;;;;;3.85;3.05;;;;;;;16.97;72.30;99892.25;5003617;28;20080;-77
2022/09/20 08:23:46;;;;;;;4.10;3.10;;;;;;;17.03;71.48;99897.69;5001680;28;20136;-77
2022/09/20 08:26:17;;;;;;;3.60;2.72;;;;;;;17.08;71.36;99894.53;5002140;28;20368;-76
2022/09/20 08:28:43;;;;;;;3.88;3.13;;;;;;;17.14;71.69;99904.50;5005135;28;20039;-77
2022/09/20 08:31:12;;;;;;;5.00;3.13;;;;;;;17.22;71.21;99901.75;5004754;28;20124;-78
2022/09/20 08:33:37;;;;;;;7.05;3.25;;;;;;;17.29;70.87;99901.88;5005655;28;20042;-80
2022/09/20 08:36:08;;;;;;;7.00;3.72;;;;;;;17.44;69.28;99900.94;5002723;28;20405;-76
2022/09/20 08:38:33;;;;;;;;;;;;;;;17.35;69.69;99895.84;5002571;28;20042;-75
2022/09/20 08:41:20;;;;;;;7.57;3.80;;;;;;;17.39;69.96;99903.31;5000815;28;20019;-77
2022/09/20 08:44:03;;;;;;;5.10;3.50;;;;;;;17.42;69.89;99902.97;5002855;28;20026;-78
2022/09/20 08:46:34;;;;;;;3.85;3.45;;;;;;;17.49;69.87;99900.41;4996075;28;20034;-78
2022/09/20 08:49:03;;;;;;;6.00;3.90;;;;;;;17.55;70.11;99907.69;5002222;28;20094;-77
2022/09/20 08:51:33;;;;;;;4.95;3.70;;;;;;;17.62;69.34;99907.81;4984578;28;20034;-76
2022/09/20 08:53:59;;;;;;;7.25;3.20;;;;;;;17.70;69.70;99899.75;5005667;28;20084;-77
2022/09/20 08:56:38;;;;;;;4.07;3.22;;;;;;;17.77;68.42;99900.69;5002463;28;20085;-77
2022/09/20 08:59:08;;;;;;;4.75;3.20;;;;;;;17.82;68.33;99909.00;4982007;28;20176;-76
2022/09/20 09:01:34;;;;;;;5.68;3.50;;;;;;;17.83;67.96;99906.16;5000902;28;20026;-79
2022/09/20 09:04:17;;;;;;;5.57;3.20;;;;;;;17.86;67.51;99905.78;5003669;28;20041;-79
2022/09/20 09:06:44;;;;;;;5.45;3.55;;;;;;;17.85;67.74;99903.28;5005815;28;20092;-77
2022/09/20 09:09:25;;;;;;;6.63;3.75;;;;;;;17.85;67.82;99898.78;5003438;28;20076;-80
2022/09/20 09:11:52;;;;;;;4.70;3.17;;;;;;;17.84;68.29;99897.13;5003194;28;20049;-78
2022/09/20 09:14:48;;;;;;;5.20;2.97;;;;;;;17.92;68.34;99899.72;5003333;28;20152;-79
2022/09/20 09:17:22;;;;;;;4.57;3.67;;;;;;;18.01;67.82;99895.13;5001625;28;20068;-79
2022/09/20 09:19:52;;;;;;;3.85;3.22;;;;;;;18.06;68.19;99900.75;5002202;28;20042;-78
2022/09/20 09:22:40;;;;;;;7.28;3.70;;;;;;;18.06;68.06;99908.78;5000899;28;20042;-77
2022/09/20 09:25:17;;;;;;;5.03;3.00;;;;;;;18.07;67.90;99897.06;4998162;28;20088;-78
2022/09/20 09:28:00;;;;;;;4.90;2.90;;;;;;;18.10;67.81;99895.88;4999166;28;20027;-79
2022/09/20 09:30:29;;;;;;;4.82;3.00;;;;;;;18.12;68.14;99900.03;4987925;28;20038;-78
2022/09/20 09:33:20;;;;;;;5.90;3.22;;;;;;;18.19;68.20;99894.78;5005484;28;20490;-78
2022/09/20 09:35:57;;;;;;;3.22;2.58;;;;;;;18.24;68.99;99887.88;4993040;28;20661;-80
2022/09/20 09:38:35;;;;;;;3.65;2.60;;;;;;;18.30;68.84;99887.16;4999584;28;20026;-80
2022/09/20 09:41:04;;;;;;;3.40;2.60;;;;;;;18.36;68.44;99886.41;5000929;28;20387;-80
2022/09/20 09:43:36;;;;;;;4.85;2.50;;;;;;;18.42;68.35;99896.34;4987143;28;20056;-80
2022/09/20 09:46:22;;;;;;;5.50;2.70;;;;;;;18.53;68.32;99892.38;5004053;28;20390;-79
2022/09/20 09:49:06;;;;;;;5.40;3.10;;;;;;;18.63;67.45;99894.78;5004635;28;20064;-80
2022/09/20 09:51:32;;;;;;;3.97;3.10;;;;;;;18.62;67.17;99885.94;5002613;28;20045;-78
2022/09/20 09:53:58;;;;;;;3.13;2.83;;;;;;;18.59;67.45;99882.81;5007221;28;20030;-78
2022/09/20 09:56:48;;;;;;;3.38;2.90;;;;;;;18.61;68.25;99878.97;5007260;28;20040;-78
2022/09/20 09:59:16;;;;;;;4.03;2.70;;;;;;;18.65;68.31;99876.72;5005974;28;20057;-78
2022/09/20 10:01:55;;;;;;;4.38;3.13;;;;;;;18.73;67.81;99876.63;5006584;28;20487;-75
2022/09/20 10:04:42;;;;;;;4.40;2.78;;;;;;;18.79;67.25;99875.88;4975962;28;20034;-76
2022/09/20 10:07:18;;;;;;;4.70;2.83;;;;;;;18.86;66.53;99865.25;4998929;28;20549;-75
2022/09/20 10:09:56;;;;;;;2.88;2.65;;;;;;;18.87;66.79;99867.72;5007104;28;20466;-75
2022/09/20 10:12:35;;;;;;;5.88;2.92;;;;;;;18.91;66.65;99869.00;5000357;28;20030;-76
2022/09/20 10:15:40;;;;;;;3.50;3.10;;;;;;;18.98;66.03;99869.91;4999027;28;20070;-77
2022/09/20 10:18:06;;;;;;;7.57;3.25;;;;;;;19.02;66.43;99865.88;5008110;28;20125;-76
2022/09/20 10:21:06;;;;;;;3.95;2.63;;;;;;;19.06;66.70;99861.78;5005333;28;20453;-75
2022/09/20 10:23:50;;;;;;;3.72;2.80;;;;;;;19.12;66.25;99857.53;5003244;28;20471;-78
2022/09/20 10:26:39;;;;;;;4.07;3.10;;;;;;;19.09;66.45;99850.69;4999752;28;20030;-79
2022/09/20 10:29:32;;;;;;;7.00;2.70;;;;;;;19.09;65.97;99845.34;4999462;28;20129;-79
2022/09/20 10:31:59;;;;;;;4.45;2.47;;;;;;;19.12;66.13;99842.31;4987002;28;20423;-79
2022/09/20 10:34:39;;;;;;;6.97;2.80;;;;;;;19.16;66.08;99840.88;5005647;28;20038;-78
2022/09/20 10:37:20;;;;;;;5.00;2.88;;;;;;;19.21;65.78;99841.13;5003208;28;20025;-76
2022/09/20 10:40:00;;;;;;;4.38;3.42;;;;;;;19.22;64.02;99833.94;5007028;28;20125;-79
2022/09/20 10:45:42;;;;;;;4.03;2.38;;;;;;;19.26;65.45;99837.09;5000475;28;20056;-78
2022/09/20 10:48:16;;;;;;;5.75;2.50;;;;;;;19.35;64.93;99835.91;5003960;28;20064;-79
2022/09/20 10:51:00;;;;;;;3.40;2.53;;;;;;;19.43;64.30;99825.09;5001811;28;20022;-79
2022/09/20 10:53:47;;;;;;;5.70;2.30;;;;;;;19.53;63.50;99820.25;5002182;28;20057;-78
2022/09/20 10:56:23;;;;;;;3.70;3.03;;;;;;;19.64;62.93;99822.41;5006264;28;20038;-79
2022/09/20 10:59:17;;;;;;;4.57;3.30;;;;;;;19.73;62.53;99817.75;5003257;28;20117;-78
2022/09/20 11:01:43;;;;;;;3.45;2.78;;;;;;;19.81;63.00;99818.41;5004473;28;20023;-77
2022/09/20 11:04:08;;;;;;;4.72;1.80;;;;;;;19.92;62.91;99815.16;5001934;28;20372;-78
2022/09/20 11:06:40;;;;;;;5.65;2.35;;;;;;;20.02;62.08;99807.63;4976977;28;20124;-77
2022/09/20 11:09:09;;;;;;;2.20;2.00;;;;;;;20.15;61.66;99803.34;5004776;28;20070;-77
2022/09/20 11:11:44;;;;;;;3.42;2.38;;;;;;;20.25;61.38;99804.66;5003721;28;20037;-78
2022/09/20 11:14:12;;;;;;;4.88;1.85;;;;;;;20.37;60.56;99803.09;4999331;28;20042;-77
2022/09/20 11:17:00;;;;;;;5.03;2.30;;;;;;;20.52;60.03;99799.41;5003935;28;20141;-77
2022/09/20 11:19:59;;;;;;;4.00;2.70;;;;;;;20.66;59.50;99801.13;4999754;28;20042;-78
2022/09/20 11:22:32;;;;;;;4.05;2.30;;;;;;;20.75;59.19;99798.06;4989305;28;20050;-80
2022/09/20 11:25:10;;;;;;;2.17;1.80;;;;;;;20.92;57.25;99803.03;5004826;28;20030;-78
2022/09/20 11:27:43;;;;;;;2.40;2.00;;;;;;;21.09;55.61;99802.44;5003726;28;20573;-77
2022/09/20 11:30:21;;;;;;;4.30;2.05;;;;;;;21.21;56.06;99789.28;5006259;28;20057;-78
2022/09/20 11:33:17;;;;;;;5.50;2.33;;;;;;;21.36;50.80;99789.09;5003066;28;20050;-76
2022/09/20 11:35:49;;;;;;;3.97;1.80;;;;;;;21.47;50.35;99789.28;4971809;28;20422;-76
2022/09/20 11:38:31;;;;;;;2.03;1.40;;;;;;;21.64;48.00;99787.81;5005129;28;20038;-76
2022/09/20 11:41:18;;;;;;;2.78;1.85;;;;;;;21.90;48.36;99788.81;4997474;28;20077;-77
2022/09/20 11:43:46;;;;;;;2.83;1.50;;;;;;;22.12;48.25;99784.88;5006551;28;20026;-77
2022/09/20 11:46:24;;;;;;;2.35;1.90;;;;;;;22.22;47.19;99782.53;5001675;28;20030;-76
2022/09/20 11:49:04;;;;;;;4.93;1.63;;;;;;;22.41;46.38;99770.88;5002383;28;20030;-77
2022/09/20 11:51:39;;;;;;;2.63;1.67;;;;;;;22.50;45.52;99771.50;4997507;28;20036;-78
2022/09/20 11:54:09;;;;;;;2.40;1.80;;;;;;;22.62;44.88;99766.25;4999506;28;20048;-75
2022/09/20 11:56:36;;;;;;;3.83;1.92;;;;;;;22.79;45.82;99767.41;5002994;28;20113;-75
2022/09/20 11:59:06;;;;;;;6.25;2.25;;;;;;;23.04;46.22;99762.88;4988003;28;20046;-74
2022/09/20 12:01:35;;;;;;;4.37;1.80;;;;;;;23.09;46.08;99763.03;4986078;28;20042;-74
2022/09/20 12:04:18;;;;;;;2.97;1.75;;;;;;;23.35;44.21;99753.09;5003488;28;20546;-76
2022/09/20 12:06:44;;;;;;;6.45;1.92;;;;;;;23.59;42.70;99752.31;4997277;28;20498;-76
2022/09/20 12:09:28;;;;;;;3.83;1.70;;;;;;;23.82;41.45;99736.31;5006238;28;20445;-75
2022/09/20 12:11:54;;;;;;;2.65;1.70;;;;;;;24.06;41.90;99738.09;5001354;28;20038;-75
2022/09/20 12:14:26;;;;;;;1.52;1.40;;;;;;;24.37;40.47;99728.22;4983926;28;20478;-78
2022/09/20 12:16:53;;;;;;;4.35;1.83;;;;;;;24.46;40.44;99726.81;5003731;28;20026;-74
2022/09/20 12:19:32;;;;;;;2.83;1.70;;;;;;;24.61;40.16;99724.56;4996021;28;20041;-77
2022/09/20 12:21:58;;;;;;;3.58;1.40;;;;;;;24.96;40.11;99723.84;4995463;28;20030;-78
2022/09/20 12:24:25;;;;;;;3.42;1.65;;;;;;;25.20;41.45;99722.84;4981538;28;20041;-79
2022/09/20 12:26:55;;;;;;;2.87;1.87;;;;;;;25.73;38.06;99719.22;4994694;28;20479;-80
2022/09/20 12:29:24;;;;;;;1.85;1.40;;;;;;;25.85;38.10;99714.63;4977594;28;20038;-81
2022/09/20 12:31:54;;;;;;;7.13;2.05;;;;;;;26.02;38.12;99710.09;4998784;28;20072;-80
2022/09/20 12:34:19;;;;;;;2.53;0.98;;;;;;;26.26;38.34;99710.88;4981009;28;20042;-82
2022/09/20 12:36:54;;;;;;;1.52;1.25;;;;;;;26.32;36.31;99709.91;5004198;28;20076;-81
2022/09/20 12:39:27;;;;;;;2.15;1.40;;;;;;;26.51;37.23;99703.22;4999989;28;20096;-81
2022/09/20 12:41:57;;;;;;;1.70;1.27;;;;;;;26.59;38.06;99704.72;4999398;28;20029;-81
2022/09/20 12:44:36;;;;;;;5.57;1.90;;;;;;;26.65;37.77;99701.06;4983033;28;20044;-79
2022/09/20 12:47:07;;;;;;;1.73;1.50;;;;;;;27.08;35.28;99693.16;4998481;28;20537;-80
2022/09/20 12:52:49;;;;;;;3.03;2.03;;;;;;;27.58;34.07;99692.28;4997178;28;20281;-80
2022/09/20 12:55:30;;;;;;;2.42;1.83;;;;;;;27.67;33.44;99686.22;4979196;28;20065;-79
2022/09/20 12:58:05;;;;;;;3.30;1.48;;;;;;;27.80;32.95;99690.44;4997308;28;20105;-81